Time;durP1;ratioP1;P1;durP2;ratioP2;P2;SDS_P1;SDS_P2;PMS_P1;PMS_P2;Temp;Humidity;BMP_temperature;BMP_pressure;BME280_temperature;BME280_humidity;BME280_pressure;Samples;Min_cycle;Max_cycle;Signal;HPM_P1;HPM_P2
2021/03/11 00:00:07;;;;;;;94.00;51.15;;;;;;;;;;751399;182;918613;-70
2021/03/11 00:02:32;;;;;;;100.97;51.47;;;;;;;;;;760806;182;919290;-71
2021/03/11 00:04:58;;;;;;;90.60;46.20;;;;;;;;;;762725;182;919143;-70
2021/03/11 00:07:24;;;;;;;88.37;43.87;;;;;;;;;;750850;182;1059770;-71
2021/03/11 00:09:50;;;;;;;90.30;47.30;;;;;;;;;;761004;182;1017617;-73
2021/03/11 00:12:16;;;;;;;101.93;47.77;;;;;;;;;;757939;182;919004;-71
2021/03/11 00:14:42;;;;;;;101.37;48.37;;;;;;;;;;760772;183;919677;-71
2021/03/11 00:17:07;;;;;;;85.27;44.47;;;;;;;;;;740746;182;1018623;-70
2021/03/11 00:19:33;;;;;;;111.73;53.90;;;;;;;;;;756350;182;919052;-72
2021/03/11 00:21:59;;;;;;;112.53;55.03;;;;;;;;;;761698;182;919194;-71
2021/03/11 00:24:25;;;;;;;123.40;54.23;;;;;;;;;;745935;186;985255;-70
2021/03/11 00:26:51;;;;;;;122.77;60.90;;;;;;;;;;752521;183;915421;-70
2021/03/11 00:29:17;;;;;;;120.87;56.80;;;;;;;;;;760408;182;915345;-71
2021/03/11 00:31:43;;;;;;;124.60;54.70;;;;;;;;;;753680;183;918748;-71
2021/03/11 00:34:09;;;;;;;109.70;54.05;;;;;;;;;;736790;189;919337;-70
2021/03/11 00:36:34;;;;;;;94.73;49.37;;;;;;;;;;760086;182;920830;-71
2021/03/11 00:39:00;;;;;;;87.53;44.57;;;;;;;;;;756573;183;934704;-71
2021/03/11 00:41:26;;;;;;;92.93;45.67;;;;;;;;;;751828;183;917950;-71
2021/03/11 00:43:52;;;;;;;97.37;48.70;;;;;;;;;;747922;182;1693816;-69
2021/03/11 00:46:19;;;;;;;95.20;49.83;;;;;;;;;;755288;183;919083;-71
2021/03/11 00:48:44;;;;;;;106.37;48.50;;;;;;;;;;755926;181;917661;-70
2021/03/11 00:51:09;;;;;;;101.20;51.63;;;;;;;;;;752904;182;920394;-70
2021/03/11 00:53:35;;;;;;;99.87;46.57;;;;;;;;;;757726;183;918417;-71
2021/03/11 00:56:01;;;;;;;111.97;49.47;;;;;;;;;;753757;182;919135;-71
2021/03/11 00:58:27;;;;;;;119.85;49.38;;;;;;;;;;756257;182;1021692;-71
2021/03/11 01:00:53;;;;;;;112.63;49.80;;;;;;;;;;759722;182;918558;-71
2021/03/11 01:03:19;;;;;;;101.27;51.73;;;;;;;;;;755565;182;918992;-70
2021/03/11 01:05:45;;;;;;;100.47;51.50;;;;;;;;;;753589;182;918963;-71
2021/03/11 01:08:10;;;;;;;82.27;47.90;;;;;;;;;;757649;182;959055;-70
2021/03/11 01:10:36;;;;;;;83.10;45.47;;;;;;;;;;757130;183;918695;-71
2021/03/11 01:13:02;;;;;;;93.90;47.20;;;;;;;;;;754855;183;917776;-71
2021/03/11 01:15:28;;;;;;;105.53;50.10;;;;;;;;;;755429;183;919563;-70
2021/03/11 01:17:54;;;;;;;91.10;46.83;;;;;;;;;;755862;182;1007540;-70
2021/03/11 01:20:20;;;;;;;93.37;48.47;;;;;;;;;;751938;182;948182;-70
2021/03/11 01:22:45;;;;;;;100.83;49.90;;;;;;;;;;759912;182;918931;-70
2021/03/11 01:25:12;;;;;;;102.07;47.60;;;;;;;;;;759142;182;918824;-70
2021/03/11 01:27:37;;;;;;;88.10;44.45;;;;;;;;;;754789;182;1020297;-69
2021/03/11 01:30:05;;;;;;;98.40;49.33;;;;;;;;;;753133;183;918447;-68
2021/03/11 01:32:30;;;;;;;89.93;45.37;;;;;;;;;;752699;182;1019328;-69
2021/03/11 01:34:56;;;;;;;96.97;49.70;;;;;;;;;;749022;183;919457;-69
2021/03/11 01:37:22;;;;;;;90.40;46.50;;;;;;;;;;752382;183;918986;-70
2021/03/11 01:39:48;;;;;;;87.23;45.07;;;;;;;;;;753836;182;1507135;-69
2021/03/11 01:42:14;;;;;;;95.37;46.20;;;;;;;;;;755078;183;917960;-69
2021/03/11 01:44:40;;;;;;;89.43;46.97;;;;;;;;;;750667;183;920160;-70
2021/03/11 01:47:06;;;;;;;92.60;47.30;;;;;;;;;;756883;183;918475;-70
2021/03/11 01:49:32;;;;;;;103.53;46.53;;;;;;;;;;759987;182;920683;-68
2021/03/11 01:51:57;;;;;;;82.80;43.93;;;;;;;;;;759727;183;922092;-70
2021/03/11 01:54:28;;;;;;;81.17;43.37;;;;;;;;;;751363;183;919400;-69
2021/03/11 01:56:54;;;;;;;89.77;46.80;;;;;;;;;;761783;183;919492;-70
2021/03/11 01:59:20;;;;;;;85.00;45.43;;;;;;;;;;759642;181;919191;-70
2021/03/11 02:01:46;;;;;;;88.13;45.17;;;;;;;;;;747292;182;2433817;-69
2021/03/11 02:04:12;;;;;;;88.83;44.43;;;;;;;;;;753616;182;922156;-69
2021/03/11 02:06:38;;;;;;;79.25;42.15;;;;;;;;;;752573;183;921233;-69
2021/03/11 02:09:04;;;;;;;87.20;43.63;;;;;;;;;;747620;186;920096;-69
2021/03/11 02:11:29;;;;;;;96.77;45.50;;;;;;;;;;743466;186;918868;-69
2021/03/11 02:13:56;;;;;;;78.17;41.07;;;;;;;;;;745012;187;918998;-70
2021/03/11 02:16:22;;;;;;;83.60;42.95;;;;;;;;;;745397;186;919130;-69
2021/03/11 02:18:49;;;;;;;78.07;41.63;;;;;;;;;;758561;182;919497;-69
2021/03/11 02:21:19;;;;;;;78.63;42.10;;;;;;;;;;729948;186;5118464;-69
2021/03/11 02:23:50;;;;;;;76.53;42.87;;;;;;;;;;740982;189;919237;-69
2021/03/11 02:26:35;;;;;;;86.95;42.72;;;;;;;;;;752518;182;920033;-69
2021/03/11 02:29:03;;;;;;;83.00;42.67;;;;;;;;;;750669;186;919642;-69
2021/03/11 02:31:29;;;;;;;72.73;39.50;;;;;;;;;;751647;183;918569;-70
2021/03/11 02:33:55;;;;;;;80.53;41.93;;;;;;;;;;760571;182;917967;-69
2021/03/11 02:36:21;;;;;;;83.93;45.80;;;;;;;;;;743090;183;1191057;-69
2021/03/11 02:38:47;;;;;;;77.95;43.58;;;;;;;;;;757088;183;915790;-69
2021/03/11 02:41:14;;;;;;;74.17;41.20;;;;;;;;;;761369;182;917693;-68
2021/03/11 02:43:40;;;;;;;78.83;39.60;;;;;;;;;;762008;183;918110;-69
2021/03/11 02:46:06;;;;;;;81.40;41.00;;;;;;;;;;745316;186;915128;-69
2021/03/11 02:48:32;;;;;;;85.50;40.27;;;;;;;;;;758189;182;1013525;-70
2021/03/11 02:50:58;;;;;;;80.65;40.75;;;;;;;;;;763175;183;913081;-69
2021/03/11 02:53:24;;;;;;;88.33;40.17;;;;;;;;;;759852;182;919071;-69
2021/03/11 02:55:50;;;;;;;95.90;44.27;;;;;;;;;;753140;183;919104;-69
2021/03/11 02:58:15;;;;;;;87.77;42.80;;;;;;;;;;758471;183;915858;-69
2021/03/11 03:00:41;;;;;;;77.57;42.33;;;;;;;;;;758702;182;913077;-69
2021/03/11 03:03:08;;;;;;;77.90;42.40;;;;;;;;;;749522;183;920168;-69
2021/03/11 03:05:34;;;;;;;76.03;41.80;;;;;;;;;;753033;183;919722;-68
2021/03/11 03:08:00;;;;;;;93.68;46.25;;;;;;;;;;752141;183;996834;-68
2021/03/11 03:10:26;;;;;;;80.47;39.13;;;;;;;;;;761647;183;1021630;-69
2021/03/11 03:12:52;;;;;;;82.90;42.27;;;;;;;;;;752111;182;1019628;-68
2021/03/11 03:15:19;;;;;;;75.40;40.33;;;;;;;;;;756862;182;919040;-68
2021/03/11 03:17:44;;;;;;;79.60;39.27;;;;;;;;;;749444;182;919901;-69
2021/03/11 03:20:10;;;;;;;82.67;44.67;;;;;;;;;;766491;183;634843;-68
2021/03/11 03:22:36;;;;;;;98.37;41.00;;;;;;;;;;764842;182;696813;-69
2021/03/11 03:25:02;;;;;;;86.07;42.50;;;;;;;;;;756640;182;631996;-68
2021/03/11 03:27:28;;;;;;;87.90;40.87;;;;;;;;;;760663;183;643916;-69
2021/03/11 03:29:54;;;;;;;76.47;41.70;;;;;;;;;;767874;182;727023;-67
2021/03/11 03:32:20;;;;;;;85.13;41.53;;;;;;;;;;758091;182;919246;-69
2021/03/11 03:34:45;;;;;;;91.43;38.07;;;;;;;;;;755557;182;920127;-69
2021/03/11 03:37:11;;;;;;;78.03;39.80;;;;;;;;;;753158;183;919234;-68
2021/03/11 03:39:37;;;;;;;75.50;41.83;;;;;;;;;;754852;182;918810;-69
2021/03/11 03:42:03;;;;;;;88.43;41.63;;;;;;;;;;749926;186;920649;-68
2021/03/11 03:44:29;;;;;;;78.93;42.27;;;;;;;;;;750436;182;915840;-68
2021/03/11 03:46:55;;;;;;;90.93;44.37;;;;;;;;;;765239;182;819518;-68
2021/03/11 03:49:21;;;;;;;77.40;40.07;;;;;;;;;;742981;183;2025513;-68
2021/03/11 03:51:47;;;;;;;76.40;41.63;;;;;;;;;;757069;182;918940;-67
2021/03/11 03:54:13;;;;;;;84.50;42.17;;;;;;;;;;761684;183;919134;-70
2021/03/11 03:56:40;;;;;;;84.07;45.07;;;;;;;;;;755038;182;917215;-68
2021/03/11 03:59:05;;;;;;;86.33;40.97;;;;;;;;;;755475;183;920283;-69
2021/03/11 04:01:32;;;;;;;78.22;42.55;;;;;;;;;;755342;182;919296;-67
2021/03/11 04:03:58;;;;;;;77.67;40.27;;;;;;;;;;762824;180;918797;-68
2021/03/11 04:06:24;;;;;;;81.40;41.13;;;;;;;;;;751575;183;919560;-68
2021/03/11 04:08:50;;;;;;;77.07;41.13;;;;;;;;;;747609;186;918524;-68
2021/03/11 04:11:16;;;;;;;87.37;42.17;;;;;;;;;;746051;186;1818893;-67
2021/03/11 04:13:42;;;;;;;85.33;43.13;;;;;;;;;;755702;183;919247;-68
2021/03/11 04:16:08;;;;;;;73.17;40.13;;;;;;;;;;756751;183;919767;-68
2021/03/11 04:18:34;;;;;;;69.97;40.17;;;;;;;;;;763623;182;920047;-69
2021/03/11 04:20:59;;;;;;;71.33;36.83;;;;;;;;;;754230;182;919574;-68
2021/03/11 04:23:25;;;;;;;89.33;39.70;;;;;;;;;;751751;182;919322;-68
2021/03/11 04:25:51;;;;;;;79.57;44.07;;;;;;;;;;758792;182;932987;-68
2021/03/11 04:28:17;;;;;;;90.60;44.53;;;;;;;;;;762292;182;919162;-68
2021/03/11 04:30:43;;;;;;;84.05;45.22;;;;;;;;;;752206;182;1613806;-67
2021/03/11 04:33:09;;;;;;;85.20;44.35;;;;;;;;;;754263;183;919435;-68
2021/03/11 04:35:35;;;;;;;82.87;44.13;;;;;;;;;;762427;183;918717;-68
2021/03/11 04:38:00;;;;;;;86.68;42.85;;;;;;;;;;756985;182;1004791;-66
2021/03/11 04:40:26;;;;;;;91.77;42.37;;;;;;;;;;746231;182;918925;-68
2021/03/11 04:42:52;;;;;;;87.33;44.00;;;;;;;;;;747991;186;919795;-67
2021/03/11 04:45:18;;;;;;;86.70;44.90;;;;;;;;;;741866;186;919495;-67
2021/03/11 04:47:45;;;;;;;97.07;45.70;;;;;;;;;;745627;186;921233;-67
2021/03/11 04:50:10;;;;;;;92.63;43.90;;;;;;;;;;755178;186;919700;-67
2021/03/11 04:52:36;;;;;;;93.47;42.20;;;;;;;;;;744344;186;916648;-68
2021/03/11 04:55:02;;;;;;;86.90;44.03;;;;;;;;;;755271;182;919282;-67
2021/03/11 04:57:28;;;;;;;91.47;39.33;;;;;;;;;;752927;182;1115451;-68
2021/03/11 04:59:53;;;;;;;70.65;41.05;;;;;;;;;;753771;183;920998;-67
2021/03/11 05:02:19;;;;;;;94.60;47.70;;;;;;;;;;741658;187;974898;-67
2021/03/11 05:04:45;;;;;;;84.20;40.47;;;;;;;;;;743753;186;919847;-67
2021/03/11 05:07:11;;;;;;;72.43;35.50;;;;;;;;;;744871;186;918926;-67
2021/03/11 05:09:37;;;;;;;60.27;30.90;;;;;;;;;;759560;182;919336;-67
2021/03/11 05:12:05;;;;;;;71.27;35.97;;;;;;;;;;749696;183;918638;-66
2021/03/11 05:14:31;;;;;;;73.90;37.03;;;;;;;;;;759572;183;918721;-66
2021/03/11 05:16:57;;;;;;;65.17;35.20;;;;;;;;;;757054;182;918932;-68
2021/03/11 05:19:23;;;;;;;85.27;40.70;;;;;;;;;;760898;182;918868;-68
2021/03/11 05:21:49;;;;;;;79.17;38.37;;;;;;;;;;761747;183;919476;-67
2021/03/11 05:24:15;;;;;;;74.83;38.47;;;;;;;;;;752226;182;948248;-68
2021/03/11 05:26:41;;;;;;;73.90;37.20;;;;;;;;;;761723;182;922801;-68
2021/03/11 05:29:06;;;;;;;70.10;35.37;;;;;;;;;;753728;183;922562;-67
2021/03/11 05:31:33;;;;;;;72.60;39.08;;;;;;;;;;754735;182;915518;-68
2021/03/11 05:33:59;;;;;;;78.10;39.07;;;;;;;;;;751963;180;921427;-68
2021/03/11 05:36:24;;;;;;;67.93;37.70;;;;;;;;;;756835;182;919187;-67
2021/03/11 05:38:50;;;;;;;74.80;38.27;;;;;;;;;;749679;186;974068;-67
2021/03/11 05:41:16;;;;;;;63.60;36.10;;;;;;;;;;760896;182;904405;-67
2021/03/11 05:43:43;;;;;;;70.95;38.15;;;;;;;;;;760646;182;919424;-67
2021/03/11 05:46:09;;;;;;;69.80;35.00;;;;;;;;;;765078;182;918613;-67
2021/03/11 05:48:35;;;;;;;80.37;38.53;;;;;;;;;;753135;182;942840;-67
2021/03/11 05:51:02;;;;;;;75.13;38.27;;;;;;;;;;751670;182;917871;-67
2021/03/11 05:53:28;;;;;;;80.32;37.60;;;;;;;;;;756876;182;949351;-65
2021/03/11 05:55:54;;;;;;;75.13;39.33;;;;;;;;;;753395;183;919085;-67
2021/03/11 05:58:19;;;;;;;87.93;39.20;;;;;;;;;;747996;182;919851;-68
2021/03/11 06:00:45;;;;;;;85.83;42.20;;;;;;;;;;760156;182;919139;-67
2021/03/11 06:03:11;;;;;;;88.43;43.50;;;;;;;;;;765394;182;919003;-68
2021/03/11 06:05:37;;;;;;;86.67;44.80;;;;;;;;;;756741;182;919574;-66
2021/03/11 06:08:03;;;;;;;84.50;42.97;;;;;;;;;;754053;182;919544;-67
2021/03/11 06:10:29;;;;;;;71.40;38.77;;;;;;;;;;761100;182;919578;-66
2021/03/11 06:12:55;;;;;;;88.93;42.20;;;;;;;;;;751582;182;918408;-67
2021/03/11 06:15:23;;;;;;;75.93;41.85;;;;;;;;;;750971;183;920322;-67
2021/03/11 06:17:49;;;;;;;99.00;43.72;;;;;;;;;;756551;183;921079;-68
2021/03/11 06:20:15;;;;;;;80.70;40.17;;;;;;;;;;750226;182;1639253;-67
2021/03/11 06:22:41;;;;;;;92.40;44.08;;;;;;;;;;754639;183;949079;-67
2021/03/11 06:25:07;;;;;;;106.73;52.20;;;;;;;;;;753882;183;918568;-66
2021/03/11 06:27:33;;;;;;;107.67;48.70;;;;;;;;;;760665;183;915561;-66
2021/03/11 06:29:59;;;;;;;99.93;50.40;;;;;;;;;;756853;183;915968;-67
2021/03/11 06:32:24;;;;;;;83.80;43.42;;;;;;;;;;758494;183;918802;-67
2021/03/11 06:34:51;;;;;;;89.43;45.83;;;;;;;;;;756602;182;918053;-67
2021/03/11 06:37:17;;;;;;;72.53;39.67;;;;;;;;;;750609;183;922237;-67
2021/03/11 06:39:44;;;;;;;80.23;38.80;;;;;;;;;;758823;182;1014185;-66
2021/03/11 06:42:10;;;;;;;74.73;40.87;;;;;;;;;;759907;182;918589;-67
2021/03/11 06:44:36;;;;;;;69.50;34.80;;;;;;;;;;753731;183;921541;-66
2021/03/11 06:47:03;;;;;;;74.22;38.28;;;;;;;;;;754324;180;1592771;-65
2021/03/11 06:49:29;;;;;;;62.43;34.17;;;;;;;;;;759917;182;921962;-66
2021/03/11 06:52:01;;;;;;;45.57;24.87;;;;;;;;;;761981;182;919259;-66
2021/03/11 06:54:26;;;;;;;39.17;19.70;;;;;;;;;;756253;182;918544;-66
2021/03/11 06:56:52;;;;;;;38.78;21.67;;;;;;;;;;762365;182;918552;-64
2021/03/11 06:59:18;;;;;;;32.40;20.43;;;;;;;;;;764235;183;918918;-65
2021/03/11 07:01:48;;;;;;;37.83;18.03;;;;;;;;;;754813;182;951595;-66
2021/03/11 07:04:19;;;;;;;30.60;16.80;;;;;;;;;;757232;183;921525;-66
2021/03/11 07:06:45;;;;;;;33.72;18.12;;;;;;;;;;752270;183;1570831;-64
2021/03/11 07:09:11;;;;;;;31.87;15.90;;;;;;;;;;756768;182;642383;-67
2021/03/11 07:11:37;;;;;;;27.10;13.90;;;;;;;;;;758078;182;623569;-65
2021/03/11 07:14:03;;;;;;;25.43;14.27;;;;;;;;;;748358;186;627333;-65
2021/03/11 07:16:29;;;;;;;24.97;14.20;;;;;;;;;;768293;183;621955;-65
2021/03/11 07:19:00;;;;;;;31.97;14.27;;;;;;;;;;759632;182;629793;-66
2021/03/11 07:21:44;;;;;;;25.70;13.40;;;;;;;;;;763495;182;620148;-66
2021/03/11 07:24:10;;;;;;;16.90;9.73;;;;;;;;;;763685;182;644422;-65
2021/03/11 07:26:36;;;;;;;19.80;11.00;;;;;;;;;;765071;183;627568;-67
2021/03/11 07:29:07;;;;;;;12.83;7.63;;;;;;;;;;762629;182;659916;-65
2021/03/11 07:31:33;;;;;;;25.93;13.50;;;;;;;;;;755931;182;627986;-67
2021/03/11 07:33:59;;;;;;;28.33;15.23;;;;;;;;;;755110;183;625417;-67
2021/03/11 07:36:25;;;;;;;26.70;12.33;;;;;;;;;;758389;182;620167;-67
2021/03/11 07:38:51;;;;;;;22.67;13.70;;;;;;;;;;757379;182;618483;-67
2021/03/11 07:41:17;;;;;;;23.83;13.13;;;;;;;;;;759429;183;618820;-66
2021/03/11 07:43:42;;;;;;;22.93;10.53;;;;;;;;;;750782;183;636570;-66
2021/03/11 07:46:08;;;;;;;24.90;12.57;;;;;;;;;;759626;183;626181;-65
2021/03/11 07:48:34;;;;;;;31.87;16.47;;;;;;;;;;752265;183;1384798;-65
2021/03/11 07:51:01;;;;;;;23.73;12.80;;;;;;;;;;762613;183;628175;-66
2021/03/11 07:53:26;;;;;;;26.30;15.90;;;;;;;;;;761515;182;630526;-70
2021/03/11 07:55:52;;;;;;;30.33;15.17;;;;;;;;;;755122;183;629529;-67
2021/03/11 07:58:18;;;;;;;30.77;14.00;;;;;;;;;;756985;182;620208;-65
2021/03/11 08:00:45;;;;;;;33.33;14.60;;;;;;;;;;761639;182;639170;-64
2021/03/11 08:03:10;;;;;;;27.37;14.30;;;;;;;;;;773675;179;618173;-64
2021/03/11 08:05:36;;;;;;;26.53;16.10;;;;;;;;;;749577;186;621174;-63
2021/03/11 08:08:18;;;;;;;26.23;14.67;;;;;;;;;;760620;182;627393;-64
2021/03/11 08:10:45;;;;;;;28.73;15.60;;;;;;;;;;769903;182;621596;-63
2021/03/11 08:13:26;;;;;;;28.30;14.83;;;;;;;;;;771164;183;635215;-63
2021/03/11 08:15:52;;;;;;;30.20;14.50;;;;;;;;;;767761;182;686711;-63
2021/03/11 08:18:24;;;;;;;25.87;14.57;;;;;;;;;;766346;182;631146;-63
2021/03/11 08:20:50;;;;;;;26.70;15.30;;;;;;;;;;761550;182;646051;-63
2021/03/11 08:23:16;;;;;;;23.40;14.97;;;;;;;;;;762951;182;629939;-63
2021/03/11 08:25:42;;;;;;;31.70;16.73;;;;;;;;;;755434;183;628891;-63
2021/03/11 08:28:23;;;;;;;25.07;14.23;;;;;;;;;;766728;182;635700;-64
2021/03/11 08:30:49;;;;;;;28.30;16.00;;;;;;;;;;762432;182;621147;-63
2021/03/11 08:33:14;;;;;;;28.07;14.57;;;;;;;;;;759191;182;619233;-62
2021/03/11 08:35:40;;;;;;;28.83;17.40;;;;;;;;;;757447;183;654259;-63
2021/03/11 08:38:12;;;;;;;27.30;12.63;;;;;;;;;;765296;183;631573;-63
2021/03/11 08:40:38;;;;;;;24.57;14.73;;;;;;;;;;752751;183;648063;-63
2021/03/11 08:43:04;;;;;;;27.87;15.93;;;;;;;;;;764563;183;633321;-63
2021/03/11 08:45:49;;;;;;;25.10;15.10;;;;;;;;;;761952;183;633652;-62
2021/03/11 08:48:15;;;;;;;28.47;14.63;;;;;;;;;;760543;183;628016;-63
2021/03/11 08:50:40;;;;;;;31.43;15.00;;;;;;;;;;752543;183;636387;-64
2021/03/11 08:53:06;;;;;;;26.10;14.73;;;;;;;;;;760294;183;637718;-69
2021/03/11 08:55:33;;;;;;;32.70;16.77;;;;;;;;;;751869;183;614705;-63
2021/03/11 08:57:59;;;;;;;23.63;14.10;;;;;;;;;;751279;186;693820;-63
2021/03/11 09:00:30;;;;;;;29.20;14.87;;;;;;;;;;748617;187;627593;-64
2021/03/11 09:02:56;;;;;;;31.03;17.30;;;;;;;;;;767780;179;640130;-64
2021/03/11 09:05:28;;;;;;;27.70;15.70;;;;;;;;;;763575;183;628951;-64
2021/03/11 09:07:54;;;;;;;25.27;13.33;;;;;;;;;;753970;180;636916;-63
2021/03/11 09:10:21;;;;;;;25.80;16.10;;;;;;;;;;762294;182;628466;-62
2021/03/11 09:12:45;;;;;;;25.67;15.63;;;;;;;;;;761564;182;621418;-62
2021/03/11 09:15:11;;;;;;;33.40;15.73;;;;;;;;;;763624;182;627722;-63
2021/03/11 09:17:37;;;;;;;25.40;16.60;;;;;;;;;;760056;182;765020;-63
2021/03/11 09:20:04;;;;;;;27.77;14.83;;;;;;;;;;759227;182;628982;-63
2021/03/11 09:22:32;;;;;;;30.73;15.90;;;;;;;;;;744346;182;618954;-64
2021/03/11 09:25:01;;;;;;;26.37;16.40;;;;;;;;;;763962;182;630271;-64
2021/03/11 09:27:28;;;;;;;29.57;15.40;;;;;;;;;;756215;182;624828;-64
2021/03/11 09:29:54;;;;;;;24.20;17.30;;;;;;;;;;766547;182;626698;-64
2021/03/11 09:32:20;;;;;;;32.00;16.10;;;;;;;;;;763927;180;624661;-63
2021/03/11 09:34:52;;;;;;;29.75;15.30;;;;;;;;;;762703;183;631964;-64
2021/03/11 09:37:22;;;;;;;27.10;16.53;;;;;;;;;;763224;182;616240;-66
2021/03/11 09:39:54;;;;;;;26.80;16.40;;;;;;;;;;764981;183;633127;-64
2021/03/11 09:42:20;;;;;;;26.40;15.20;;;;;;;;;;775039;179;649592;-64
2021/03/11 09:44:45;;;;;;;29.98;16.15;;;;;;;;;;771780;179;613991;-63
2021/03/11 09:47:11;;;;;;;27.60;15.43;;;;;;;;;;775904;180;629564;-63
2021/03/11 09:49:37;;;;;;;25.58;15.57;;;;;;;;;;773172;179;629741;-64
2021/03/11 09:52:03;;;;;;;28.73;14.40;;;;;;;;;;771802;180;645179;-64
2021/03/11 09:54:29;;;;;;;22.03;13.83;;;;;;;;;;773903;179;626721;-62
2021/03/11 09:56:55;;;;;;;25.97;13.53;;;;;;;;;;770983;181;628650;-63
2021/03/11 09:59:21;;;;;;;23.83;14.85;;;;;;;;;;767753;180;653536;-63
2021/03/11 10:01:48;;;;;;;29.40;14.53;;;;;;;;;;767755;180;628348;-64
2021/03/11 10:04:16;;;;;;;27.67;15.20;;;;;;;;;;770600;180;702105;-64
2021/03/11 10:06:47;;;;;;;26.17;16.30;;;;;;;;;;774117;180;816899;-62
2021/03/11 10:09:13;;;;;;;23.70;13.43;;;;;;;;;;770876;180;647408;-64
2021/03/11 10:11:40;;;;;;;29.80;15.60;;;;;;;;;;770788;180;633069;-64
2021/03/11 10:14:05;;;;;;;27.83;14.77;;;;;;;;;;772344;180;649666;-63
2021/03/11 10:16:40;;;;;;;25.10;17.33;;;;;;;;;;772191;180;641055;-64
2021/03/11 10:19:05;;;;;;;24.47;13.07;;;;;;;;;;771117;179;626641;-66
2021/03/11 10:21:32;;;;;;;22.30;14.40;;;;;;;;;;781910;178;630426;-64
2021/03/11 10:23:58;;;;;;;23.90;14.50;;;;;;;;;;776601;178;640572;-66
2021/03/11 10:26:25;;;;;;;27.40;15.17;;;;;;;;;;775017;179;631994;-65
2021/03/11 10:28:51;;;;;;;22.63;15.00;;;;;;;;;;771029;179;624149;-65
2021/03/11 10:31:16;;;;;;;27.80;17.43;;;;;;;;;;772627;179;630471;-64
2021/03/11 10:33:42;;;;;;;31.00;15.43;;;;;;;;;;768753;179;618082;-64
2021/03/11 10:36:17;;;;;;;34.75;15.35;;;;;;;;;;773236;179;634126;-64
2021/03/11 10:38:43;;;;;;;27.07;14.10;;;;;;;;;;776094;179;626969;-63
2021/03/11 10:41:11;;;;;;;25.80;14.30;;;;;;;;;;772645;179;637160;-63
2021/03/11 10:43:36;;;;;;;33.27;17.97;;;;;;;;;;775139;179;910452;-62
2021/03/11 10:46:02;;;;;;;28.60;16.27;;;;;;;;;;765607;179;920646;-62
2021/03/11 10:48:28;;;;;;;31.07;16.80;;;;;;;;;;768690;180;920610;-63
2021/03/11 10:50:54;;;;;;;28.95;16.30;;;;;;;;;;763619;179;918484;-61
2021/03/11 10:53:20;;;;;;;25.87;16.27;;;;;;;;;;770413;179;920841;-63
2021/03/11 10:55:46;;;;;;;30.13;16.43;;;;;;;;;;766663;179;915810;-63
2021/03/11 10:58:27;;;;;;;27.90;16.45;;;;;;;;;;764896;180;920214;-63
2021/03/11 11:01:14;;;;;;;27.00;18.07;;;;;;;;;;763760;180;917873;-63
2021/03/11 11:03:40;;;;;;;32.90;17.23;;;;;;;;;;770720;182;916965;-63
2021/03/11 11:06:06;;;;;;;27.20;16.10;;;;;;;;;;762612;179;1527611;-63
2021/03/11 11:08:31;;;;;;;27.75;15.18;;;;;;;;;;772065;179;915629;-63
2021/03/11 11:11:01;;;;;;;31.07;15.47;;;;;;;;;;781761;179;920524;-65
2021/03/11 11:13:27;;;;;;;19.13;11.80;;;;;;;;;;776832;179;1021724;-64
2021/03/11 11:15:53;;;;;;;28.37;15.27;;;;;;;;;;777555;179;919190;-63
2021/03/11 11:18:19;;;;;;;30.90;16.77;;;;;;;;;;779078;179;899408;-62
2021/03/11 11:20:45;;;;;;;32.30;16.20;;;;;;;;;;774027;179;1411330;-64
2021/03/11 11:23:11;;;;;;;28.50;16.00;;;;;;;;;;773918;179;919790;-63
2021/03/11 11:25:37;;;;;;;27.98;17.10;;;;;;;;;;780261;179;1021671;-62
2021/03/11 11:28:04;;;;;;;31.60;16.97;;;;;;;;;;775543;175;760283;-64
2021/03/11 11:30:30;;;;;;;34.70;15.83;;;;;;;;;;775442;179;919145;-65
2021/03/11 11:32:56;;;;;;;24.27;16.37;;;;;;;;;;776395;178;911871;-62
2021/03/11 11:35:22;;;;;;;24.73;15.05;;;;;;;;;;783042;178;919415;-64
2021/03/11 11:37:47;;;;;;;28.23;15.03;;;;;;;;;;774802;178;918722;-63
2021/03/11 11:40:13;;;;;;;24.05;14.52;;;;;;;;;;778147;178;919843;-64
2021/03/11 11:42:39;;;;;;;26.60;15.60;;;;;;;;;;781115;178;918464;-63
2021/03/11 11:45:06;;;;;;;26.13;15.50;;;;;;;;;;779755;178;919808;-62
2021/03/11 11:47:32;;;;;;;33.03;18.63;;;;;;;;;;776678;178;919257;-62
2021/03/11 11:49:57;;;;;;;28.83;15.80;;;;;;;;;;783368;178;918531;-62
2021/03/11 11:52:23;;;;;;;20.83;12.90;;;;;;;;;;779637;179;921024;-62
2021/03/11 11:54:49;;;;;;;33.00;15.97;;;;;;;;;;774172;179;1341035;-62
2021/03/11 11:57:15;;;;;;;30.67;18.47;;;;;;;;;;777444;179;998331;-63
2021/03/11 11:59:41;;;;;;;30.00;16.93;;;;;;;;;;779598;179;918424;-62
2021/03/11 12:02:07;;;;;;;23.53;13.87;;;;;;;;;;778624;179;919545;-63
2021/03/11 12:04:34;;;;;;;29.67;17.10;;;;;;;;;;773974;179;920211;-62
2021/03/11 12:06:58;;;;;;;31.77;13.45;;;;;;;;;;781887;179;919636;-62
2021/03/11 12:09:24;;;;;;;32.27;19.80;;;;;;;;;;774510;179;1022090;-62
2021/03/11 12:11:50;;;;;;;31.58;17.02;;;;;;;;;;778481;179;917298;-63
2021/03/11 12:14:16;;;;;;;38.33;17.37;;;;;;;;;;781425;179;917739;-65
2021/03/11 12:16:42;;;;;;;24.67;14.23;;;;;;;;;;779145;179;919407;-71
2021/03/11 12:19:08;;;;;;;31.20;16.50;;;;;;;;;;776282;179;920261;-65
2021/03/11 12:21:34;;;;;;;27.57;16.47;;;;;;;;;;781866;179;922303;-65
2021/03/11 12:24:00;;;;;;;28.00;16.20;;;;;;;;;;773242;179;919607;-65
2021/03/11 12:26:25;;;;;;;31.93;15.97;;;;;;;;;;776037;179;920065;-66
2021/03/11 12:28:51;;;;;;;30.57;16.80;;;;;;;;;;779859;179;916996;-64
2021/03/11 12:31:17;;;;;;;30.97;18.33;;;;;;;;;;780781;179;918285;-64
2021/03/11 12:33:43;;;;;;;27.53;16.30;;;;;;;;;;778990;179;919946;-65
2021/03/11 12:36:09;;;;;;;35.75;18.77;;;;;;;;;;772447;179;1310356;-65
2021/03/11 12:38:35;;;;;;;31.48;18.60;;;;;;;;;;783380;179;917195;-65
2021/03/11 12:41:01;;;;;;;33.03;19.00;;;;;;;;;;776696;179;918593;-65
2021/03/11 12:43:27;;;;;;;32.22;17.92;;;;;;;;;;776539;177;918537;-65
2021/03/11 12:45:52;;;;;;;24.60;15.93;;;;;;;;;;783422;178;908271;-64
2021/03/11 12:48:18;;;;;;;18.57;10.07;;;;;;;;;;778637;178;916816;-63
2021/03/11 12:50:48;;;;;;;34.00;19.12;;;;;;;;;;776292;178;916258;-64
2021/03/11 12:53:11;;;;;;;30.45;15.00;;;;;;;;;;782893;178;916034;-63
2021/03/11 12:55:37;;;;;;;32.40;17.23;;;;;;;;;;776536;175;915290;-64
2021/03/11 12:58:02;;;;;;;25.40;13.85;;;;;;;;;;777632;178;916475;-65
2021/03/11 13:00:28;;;;;;;40.53;19.93;;;;;;;;;;775317;178;943369;-63
2021/03/11 13:02:55;;;;;;;35.20;17.67;;;;;;;;;;783599;178;918860;-64
2021/03/11 13:05:23;;;;;;;33.20;18.77;;;;;;;;;;774840;179;1020539;-64
2021/03/11 13:07:49;;;;;;;26.77;17.43;;;;;;;;;;776695;179;914375;-63
2021/03/11 13:10:15;;;;;;;27.63;15.67;;;;;;;;;;783588;179;899307;-65
2021/03/11 13:12:42;;;;;;;27.33;13.13;;;;;;;;;;771568;179;1735463;-64
2021/03/11 13:15:07;;;;;;;30.57;18.07;;;;;;;;;;777393;179;920100;-62
2021/03/11 13:17:34;;;;;;;29.83;17.23;;;;;;;;;;776791;179;1279460;-64
2021/03/11 13:20:00;;;;;;;23.23;13.67;;;;;;;;;;771674;179;1017109;-64
2021/03/11 13:22:26;;;;;;;30.63;17.00;;;;;;;;;;772885;179;915597;-65
2021/03/11 13:24:52;;;;;;;31.47;18.90;;;;;;;;;;776475;179;919994;-65
2021/03/11 13:27:18;;;;;;;25.47;15.70;;;;;;;;;;780265;179;919337;-64
2021/03/11 13:29:44;;;;;;;31.00;18.00;;;;;;;;;;777040;179;1021270;-63
2021/03/11 13:32:10;;;;;;;28.70;15.70;;;;;;;;;;774935;179;918273;-63
2021/03/11 13:34:36;;;;;;;31.43;18.30;;;;;;;;;;782398;179;920261;-64
2021/03/11 13:37:02;;;;;;;30.43;17.30;;;;;;;;;;773727;179;1509906;-64
2021/03/11 13:39:28;;;;;;;33.60;17.83;;;;;;;;;;778041;179;919391;-64
2021/03/11 13:41:54;;;;;;;29.60;16.90;;;;;;;;;;777624;179;920035;-65
2021/03/11 13:44:20;;;;;;;29.20;17.77;;;;;;;;;;776988;179;912232;-65
2021/03/11 13:46:46;;;;;;;28.97;17.90;;;;;;;;;;776756;179;913047;-64
2021/03/11 13:49:12;;;;;;;33.50;18.42;;;;;;;;;;773056;179;937281;-64
2021/03/11 13:51:38;;;;;;;28.73;17.60;;;;;;;;;;777186;175;917536;-66
2021/03/11 13:54:04;;;;;;;34.57;17.17;;;;;;;;;;773079;179;924607;-65
2021/03/11 13:56:30;;;;;;;33.00;18.60;;;;;;;;;;780676;176;915212;-64